Time;durP1;ratioP1;P1;durP2;ratioP2;P2;SDS_P1;SDS_P2;PMS_P1;PMS_P2;Temp;Humidity;BMP_temperature;BMP_pressure;BME280_temperature;BME280_humidity;BME280_pressure;Samples;Min_cycle;Max_cycle;Signal;HPM_P1;HPM_P2
2021/12/22 00:01:27;;;;;;;31.63;16.40;;;-1.00;99.90;;;;;;5091827;28;20036;-77
2021/12/22 00:03:53;;;;;;;33.72;15.65;;;-1.00;99.90;;;;;;5074577;28;20020;-78
2021/12/22 00:06:21;;;;;;;38.83;17.02;;;-1.00;99.90;;;;;;5083766;28;20084;-77
2021/12/22 00:08:47;;;;;;;36.85;15.82;;;-0.90;99.90;;;;;;5074063;28;20066;-79
2021/12/22 00:11:13;;;;;;;32.03;16.30;;;-1.00;99.90;;;;;;5074815;28;20062;-77
2021/12/22 00:13:38;;;;;;;36.60;17.00;;;-1.00;99.90;;;;;;5075367;28;20023;-77
2021/12/22 00:16:05;;;;;;;40.30;16.13;;;-1.00;99.90;;;;;;5072292;28;20041;-78
2021/12/22 00:18:36;;;;;;;34.35;16.00;;;-1.00;99.90;;;;;;5072648;28;20016;-78
2021/12/22 00:21:02;;;;;;;35.30;16.10;;;-1.00;99.90;;;;;;5071503;28;20032;-77
2021/12/22 00:23:28;;;;;;;34.85;15.20;;;-1.10;99.90;;;;;;5072251;28;20028;-77
2021/12/22 00:25:54;;;;;;;35.45;14.77;;;-1.10;99.90;;;;;;5071934;28;20020;-77
2021/12/22 00:28:19;;;;;;;32.45;15.10;;;-1.20;99.90;;;;;;5071547;28;20399;-78
2021/12/22 00:30:46;;;;;;;32.72;15.38;;;-1.30;99.90;;;;;;5073189;28;20027;-77
2021/12/22 00:33:12;;;;;;;36.78;15.13;;;-1.30;99.90;;;;;;5072341;28;20060;-77
2021/12/22 00:35:44;;;;;;;33.03;16.15;;;-1.30;99.90;;;;;;5073035;28;20144;-79
2021/12/22 00:38:13;;;;;;;37.67;16.40;;;-1.30;99.90;;;;;;5073419;28;20437;-77
2021/12/22 00:40:40;;;;;;;39.97;18.17;;;-1.30;99.90;;;;;;5073410;28;20020;-79
2021/12/22 00:43:06;;;;;;;40.08;18.60;;;-1.40;99.90;;;;;;5072275;28;20104;-80
2021/12/22 00:45:34;;;;;;;31.67;16.67;;;-1.40;99.90;;;;;;5073396;28;20111;-79
2021/12/22 00:48:00;;;;;;;39.50;16.73;;;-1.40;99.90;;;;;;5072968;28;20128;-80
2021/12/22 00:50:26;;;;;;;40.47;17.45;;;-1.40;99.90;;;;;;5072404;28;20031;-78
2021/12/22 00:52:52;;;;;;;39.75;17.45;;;-1.40;99.90;;;;;;5073067;28;20021;-77
2021/12/22 00:55:19;;;;;;;45.25;17.63;;;-1.40;99.90;;;;;;5072586;28;20072;-78
2021/12/22 00:57:47;;;;;;;34.42;16.27;;;-1.40;99.90;;;;;;5072419;28;20044;-77
2021/12/22 01:00:15;;;;;;;35.38;16.15;;;-1.30;99.90;;;;;;5072226;28;20082;-78
2021/12/22 01:02:40;;;;;;;41.42;17.20;;;-1.30;99.90;;;;;;5072284;28;20024;-76
2021/12/22 01:05:07;;;;;;;40.03;17.05;;;-1.30;99.90;;;;;;5072409;28;20028;-79
2021/12/22 01:07:35;;;;;;;34.40;16.60;;;-1.30;99.90;;;;;;5085082;28;20035;-77
2021/12/22 01:10:01;;;;;;;36.17;16.42;;;-1.30;99.90;;;;;;5078838;28;20479;-77
2021/12/22 01:12:26;;;;;;;35.80;16.85;;;-1.30;99.90;;;;;;5072876;28;20053;-77
2021/12/22 01:14:52;;;;;;;30.75;16.33;;;-1.40;99.90;;;;;;5072867;28;20036;-77
2021/12/22 01:17:18;;;;;;;36.88;15.75;;;-1.40;99.90;;;;;;5079197;28;20031;-77
2021/12/22 01:19:51;;;;;;;34.05;15.57;;;-1.40;99.90;;;;;;5076893;28;20472;-76
2021/12/22 01:22:25;;;;;;;39.15;15.60;;;-1.40;99.90;;;;;;5081599;28;20024;-78
2021/12/22 01:24:59;;;;;;;39.63;17.23;;;-1.40;99.90;;;;;;5077110;28;20060;-78
2021/12/22 01:27:27;;;;;;;37.30;17.00;;;-1.50;99.90;;;;;;5072687;28;20032;-77
2021/12/22 01:29:52;;;;;;;37.45;16.75;;;-1.50;99.90;;;;;;5072342;28;20051;-78
2021/12/22 01:32:18;;;;;;;42.35;18.35;;;-1.50;99.90;;;;;;5071741;28;20605;-79
2021/12/22 01:34:44;;;;;;;34.50;16.63;;;-1.50;99.90;;;;;;5072441;28;20041;-77
2021/12/22 01:37:09;;;;;;;38.15;17.42;;;-1.50;99.90;;;;;;5071990;28;20036;-78
2021/12/22 01:39:35;;;;;;;41.33;17.55;;;-1.50;99.90;;;;;;5072113;28;20138;-79
2021/12/22 01:42:01;;;;;;;33.35;16.45;;;-1.60;99.90;;;;;;5072670;28;20056;-78
2021/12/22 01:50:09;;;;;;;40.67;16.35;;;-1.60;99.90;;;;;;5072611;28;20483;-78
2021/12/22 01:52:35;;;;;;;29.23;16.08;;;-1.60;99.90;;;;;;5072089;28;20021;-77
2021/12/22 01:55:14;;;;;;;42.67;16.02;;;-1.60;99.90;;;;;;5072487;28;20055;-79
2021/12/22 01:57:46;;;;;;;35.13;15.65;;;-1.60;99.90;;;;;;5072354;28;20025;-79
2021/12/22 02:00:14;;;;;;;34.22;17.02;;;-1.60;99.90;;;;;;5071433;28;20103;-77
2021/12/22 02:02:39;;;;;;;38.08;16.65;;;-1.70;99.90;;;;;;5072048;28;20362;-78
2021/12/22 02:05:05;;;;;;;41.50;16.88;;;-1.70;99.90;;;;;;5072030;28;20165;-78
2021/12/22 02:07:31;;;;;;;45.47;16.20;;;-1.70;99.90;;;;;;5071447;28;20042;-77
2021/12/22 02:12:24;;;;;;;41.05;17.25;;;-1.70;99.90;;;;;;5072136;28;20510;-77
2021/12/22 02:14:50;;;;;;;40.63;18.52;;;-1.60;99.90;;;;;;5072547;28;20032;-77
2021/12/22 02:17:16;;;;;;;38.75;17.15;;;-1.60;99.90;;;;;;5076588;28;20098;-78
2021/12/22 02:19:46;;;;;;;43.65;16.88;;;-1.70;99.90;;;;;;5072987;28;20052;-77
2021/12/22 02:22:14;;;;;;;43.88;17.15;;;-1.70;99.90;;;;;;5089380;28;20115;-77
2021/12/22 02:24:49;;;;;;;37.38;16.85;;;-1.60;99.90;;;;;;5092595;28;20317;-77
2021/12/22 02:30:07;;;;;;;37.67;17.20;;;-1.60;99.90;;;;;;5094421;28;20070;-77
2021/12/22 02:35:24;;;;;;;42.92;18.25;;;-1.60;99.90;;;;;;5091380;28;20047;-79
2021/12/22 02:37:50;;;;;;;37.08;16.02;;;-1.60;99.90;;;;;;5091812;28;20020;-77
2021/12/22 02:40:18;;;;;;;36.33;16.48;;;-1.60;99.90;;;;;;5091950;28;20452;-77
2021/12/22 02:42:46;;;;;;;38.40;15.90;;;-1.60;99.90;;;;;;5091480;28;20388;-77
2021/12/22 02:45:15;;;;;;;40.78;18.50;;;-1.60;99.90;;;;;;5092024;28;20028;-78
2021/12/22 02:47:41;;;;;;;39.72;17.83;;;-1.60;99.90;;;;;;5091973;28;20052;-78
2021/12/22 02:50:10;;;;;;;34.75;16.95;;;-1.60;99.90;;;;;;5091319;28;20017;-79
2021/12/22 02:52:49;;;;;;;33.80;16.48;;;-1.60;99.90;;;;;;5092277;28;20020;-78
2021/12/22 02:55:14;;;;;;;33.75;14.70;;;-1.60;99.90;;;;;;5091963;28;20404;-78
2021/12/22 02:57:45;;;;;;;36.90;16.80;;;-1.60;99.90;;;;;;5095572;28;20032;-78
2021/12/22 03:05:34;;;;;;;34.40;15.85;;;-1.70;99.90;;;;;;5095161;28;20388;-78
2021/12/22 03:08:00;;;;;;;35.30;15.82;;;-1.70;99.90;;;;;;5098130;28;20040;-77
2021/12/22 03:10:25;;;;;;;33.47;15.50;;;-1.70;99.90;;;;;;5109641;28;20031;-78
2021/12/22 03:12:53;;;;;;;38.72;16.73;;;-1.80;99.90;;;;;;5095656;28;20032;-78
2021/12/22 03:15:19;;;;;;;39.80;16.83;;;-1.70;99.90;;;;;;5094814;28;20032;-78
2021/12/22 03:17:46;;;;;;;39.60;15.90;;;-1.70;99.90;;;;;;5095131;28;20452;-79
2021/12/22 03:20:14;;;;;;;32.67;16.58;;;-1.70;99.90;;;;;;5105725;28;20058;-77
2021/12/22 03:22:43;;;;;;;40.65;16.67;;;-1.70;99.90;;;;;;5097789;28;20016;-76
2021/12/22 03:25:14;;;;;;;48.85;17.80;;;-1.70;99.90;;;;;;5107549;28;20080;-77
2021/12/22 03:27:42;;;;;;;36.03;15.73;;;-1.70;99.90;;;;;;5095820;28;20043;-77
2021/12/22 03:30:08;;;;;;;30.88;16.30;;;-1.70;99.90;;;;;;5094912;28;20036;-79
2021/12/22 03:32:34;;;;;;;41.88;16.92;;;-1.60;99.90;;;;;;5095105;28;20024;-78
2021/12/22 03:34:59;;;;;;;42.55;17.65;;;-1.60;99.90;;;;;;5095266;28;20115;-78
2021/12/22 03:37:25;;;;;;;40.08;16.65;;;-1.60;99.90;;;;;;5095002;28;20059;-76
2021/12/22 03:39:51;;;;;;;35.30;15.40;;;-1.60;99.90;;;;;;5094599;28;20040;-76
2021/12/22 03:42:16;;;;;;;35.65;16.15;;;-1.60;99.90;;;;;;5094412;28;20024;-79
2021/12/22 03:44:42;;;;;;;37.90;16.10;;;-1.60;99.90;;;;;;5094033;28;20572;-76
2021/12/22 03:47:08;;;;;;;39.88;17.45;;;-1.60;99.90;;;;;;5094281;28;20052;-77
2021/12/22 03:49:35;;;;;;;35.10;16.52;;;-1.60;99.90;;;;;;5095021;28;20058;-76
2021/12/22 03:52:02;;;;;;;39.05;17.27;;;-1.60;99.90;;;;;;5095313;28;20035;-77
2021/12/22 03:54:28;;;;;;;39.75;16.52;;;-1.60;99.90;;;;;;5096013;28;20111;-76
2021/12/22 03:56:53;;;;;;;40.97;17.45;;;-1.60;99.90;;;;;;5095458;28;20174;-78
2021/12/22 03:59:20;;;;;;;44.40;16.77;;;-1.70;99.90;;;;;;5093566;28;20020;-78
2021/12/22 04:01:46;;;;;;;43.45;16.73;;;-1.70;99.90;;;;;;5095064;28;20380;-77
2021/12/22 04:04:15;;;;;;;39.63;16.60;;;-1.70;99.90;;;;;;5094978;28;20023;-76
2021/12/22 04:06:43;;;;;;;42.13;17.50;;;-1.70;99.90;;;;;;5093797;28;20537;-78
2021/12/22 04:09:09;;;;;;;44.90;17.00;;;-1.60;99.90;;;;;;5094145;28;20479;-77
2021/12/22 04:11:35;;;;;;;44.10;16.80;;;-1.70;99.90;;;;;;5095217;28;20039;-77
2021/12/22 04:14:00;;;;;;;39.40;17.20;;;-1.70;99.90;;;;;;5094272;28;20073;-77
2021/12/22 04:16:26;;;;;;;40.10;16.95;;;-1.80;99.90;;;;;;5093485;28;20148;-78
2021/12/22 04:18:53;;;;;;;30.50;15.60;;;-1.70;99.90;;;;;;5094823;28;20016;-77
2021/12/22 04:21:19;;;;;;;34.08;15.55;;;-1.80;99.90;;;;;;5092847;28;20429;-78
2021/12/22 04:23:44;;;;;;;37.15;15.60;;;-1.80;99.90;;;;;;5094788;28;20077;-76
2021/12/22 04:26:12;;;;;;;40.13;17.02;;;-1.80;99.90;;;;;;5094273;28;20407;-77
2021/12/22 04:28:41;;;;;;;37.92;17.02;;;-1.80;99.90;;;;;;5093720;28;20031;-77
2021/12/22 04:31:10;;;;;;;42.40;16.42;;;-1.80;99.90;;;;;;5095217;28;20024;-78
2021/12/22 04:33:36;;;;;;;40.17;16.10;;;-1.80;99.90;;;;;;5094521;28;20024;-78
2021/12/22 04:36:01;;;;;;;43.33;16.67;;;-1.80;99.90;;;;;;5093107;28;20036;-77
2021/12/22 04:38:27;;;;;;;35.42;15.35;;;-1.80;99.90;;;;;;5093657;28;20059;-77
2021/12/22 04:40:53;;;;;;;36.42;16.33;;;-1.80;99.90;;;;;;5093168;28;20414;-77
2021/12/22 04:43:18;;;;;;;44.47;16.73;;;-1.80;99.90;;;;;;5093882;28;20020;-77
2021/12/22 04:45:44;;;;;;;35.58;15.63;;;-1.80;99.90;;;;;;5094386;28;20372;-77
2021/12/22 04:48:10;;;;;;;39.08;17.73;;;-1.90;99.90;;;;;;5092600;28;20116;-77
2021/12/22 04:50:36;;;;;;;40.97;17.60;;;-1.90;99.90;;;;;;5093222;28;20096;-79
2021/12/22 04:55:32;;;;;;;36.40;16.77;;;-1.90;99.90;;;;;;5092769;28;20560;-77
2021/12/22 04:57:59;;;;;;;39.90;16.50;;;-1.90;99.90;;;;;;5093443;28;20103;-78
2021/12/22 05:00:28;;;;;;;39.92;16.67;;;-1.90;99.90;;;;;;5093825;28;20028;-76
2021/12/22 05:02:54;;;;;;;42.30;17.02;;;-1.90;99.90;;;;;;5094533;28;20141;-78
2021/12/22 05:05:20;;;;;;;32.65;15.68;;;-2.00;99.90;;;;;;5096361;28;20032;-77
2021/12/22 05:07:47;;;;;;;41.33;17.00;;;-1.90;99.90;;;;;;5094673;28;20023;-77
2021/12/22 05:10:14;;;;;;;44.10;16.48;;;-1.90;99.90;;;;;;5099001;28;20091;-77
2021/12/22 05:12:40;;;;;;;39.63;17.10;;;-1.90;99.90;;;;;;5107627;28;20095;-77
2021/12/22 05:15:06;;;;;;;44.35;16.63;;;-1.90;99.90;;;;;;5093902;28;20111;-79
2021/12/22 05:18:22;;;;;;;42.85;16.20;;;-1.90;99.90;;;;;;5095427;28;20428;-78
2021/12/22 05:20:18;;;;;;;43.78;17.42;;;-2.00;99.90;;;;;;5096125;28;20040;-78
2021/12/22 05:22:43;;;;;;;41.30;17.58;;;-2.00;99.90;;;;;;5106960;28;20032;-77
2021/12/22 05:25:11;;;;;;;36.65;16.15;;;-2.00;99.90;;;;;;5098755;28;20080;-77
2021/12/22 05:27:36;;;;;;;39.67;17.10;;;-2.00;99.90;;;;;;5104753;28;20357;-76
2021/12/22 05:30:05;;;;;;;42.55;15.85;;;-1.90;99.90;;;;;;5092615;28;20069;-78
2021/12/22 05:32:32;;;;;;;36.97;16.60;;;-2.00;99.90;;;;;;5092867;28;20073;-77
2021/12/22 05:34:59;;;;;;;48.45;18.40;;;-2.10;99.90;;;;;;5093225;28;20396;-79
2021/12/22 05:37:24;;;;;;;40.90;17.08;;;-2.10;99.90;;;;;;5091983;28;20032;-78
2021/12/22 05:39:50;;;;;;;42.13;16.73;;;-2.10;99.90;;;;;;5093592;28;20020;-77
2021/12/22 05:42:16;;;;;;;51.00;18.60;;;-2.10;99.90;;;;;;5092883;28;20047;-77
2021/12/22 05:44:42;;;;;;;40.90;16.75;;;-2.10;99.90;;;;;;5092022;28;20032;-76
2021/12/22 05:47:08;;;;;;;41.17;16.83;;;-2.20;99.90;;;;;;5092345;28;20056;-77
2021/12/22 05:49:34;;;;;;;39.08;16.30;;;-2.20;99.90;;;;;;5092516;28;20055;-79
2021/12/22 05:52:00;;;;;;;40.97;17.85;;;-2.20;99.90;;;;;;5091689;28;20027;-77
2021/12/22 05:54:26;;;;;;;42.30;16.52;;;-2.20;99.90;;;;;;5092717;28;20028;-76
2021/12/22 05:56:52;;;;;;;40.58;16.45;;;-2.30;99.90;;;;;;5092666;28;20051;-78
2021/12/22 05:59:17;;;;;;;46.05;17.27;;;-2.30;99.90;;;;;;5091628;28;20464;-79
2021/12/22 06:01:46;;;;;;;37.92;16.02;;;-2.20;99.90;;;;;;5092486;28;20472;-77
2021/12/22 06:04:11;;;;;;;41.33;16.42;;;-2.20;99.90;;;;;;5092232;28;20032;-78
2021/12/22 06:06:37;;;;;;;35.58;16.33;;;-2.30;99.90;;;;;;5091870;28;20028;-77
2021/12/22 06:09:03;;;;;;;32.88;15.95;;;-2.30;99.90;;;;;;5092136;28;20024;-78
2021/12/22 06:11:29;;;;;;;43.47;17.67;;;-2.30;99.90;;;;;;5092353;28;20472;-77
2021/12/22 06:13:55;;;;;;;43.30;18.02;;;-2.30;99.90;;;;;;5092006;28;20079;-77
2021/12/22 06:16:21;;;;;;;37.70;16.25;;;-2.40;99.90;;;;;;5092002;28;20040;-77
2021/12/22 06:18:54;;;;;;;47.83;18.80;;;-2.40;99.90;;;;;;5092230;28;20032;-76
2021/12/22 06:21:20;;;;;;;41.83;15.88;;;-2.40;99.90;;;;;;5091361;28;20433;-76
2021/12/22 06:23:45;;;;;;;43.97;18.60;;;-2.40;99.90;;;;;;5092114;28;20103;-77
2021/12/22 06:26:11;;;;;;;36.95;16.70;;;-2.40;99.90;;;;;;5092147;28;20123;-75
2021/12/22 06:28:36;;;;;;;43.20;18.70;;;-2.40;99.90;;;;;;5091732;28;20020;-77
2021/12/22 06:31:03;;;;;;;42.80;16.90;;;-2.50;99.90;;;;;;5094717;28;20059;-77
2021/12/22 06:33:28;;;;;;;41.53;17.83;;;-2.40;99.90;;;;;;5095380;28;20464;-77
2021/12/22 06:35:54;;;;;;;41.58;18.00;;;-2.50;99.90;;;;;;5095957;28;20118;-76
2021/12/22 06:38:20;;;;;;;41.17;18.05;;;-2.50;99.90;;;;;;5095878;28;20491;-78
2021/12/22 06:40:45;;;;;;;41.40;17.90;;;-2.40;99.90;;;;;;5095382;28;20020;-78
2021/12/22 06:43:11;;;;;;;45.38;18.90;;;-2.50;99.90;;;;;;5095833;28;20429;-77
2021/12/22 06:45:36;;;;;;;36.47;17.92;;;-2.40;99.90;;;;;;5095968;28;20490;-78
2021/12/22 06:48:02;;;;;;;52.35;19.30;;;-2.40;99.90;;;;;;5090821;28;20063;-79
2021/12/22 06:50:28;;;;;;;41.60;17.90;;;-2.40;99.90;;;;;;5075020;28;20362;-78
2021/12/22 06:52:53;;;;;;;44.25;17.92;;;-2.40;99.90;;;;;;5078445;28;20055;-76
2021/12/22 06:55:19;;;;;;;39.15;17.65;;;-2.40;99.90;;;;;;5074467;28;20028;-76
2021/12/22 06:57:45;;;;;;;47.70;17.35;;;-2.40;99.90;;;;;;5077784;28;20035;-80
2021/12/22 07:00:13;;;;;;;44.88;17.38;;;-2.50;99.90;;;;;;5074202;28;20032;-74
2021/12/22 07:02:42;;;;;;;40.33;15.88;;;-2.40;99.90;;;;;;5076714;28;20100;-75
2021/12/22 07:05:10;;;;;;;38.63;16.98;;;-2.30;99.90;;;;;;5073381;28;20384;-76
2021/12/22 07:07:37;;;;;;;42.10;17.38;;;-2.40;99.90;;;;;;5074484;28;20020;-75
2021/12/22 07:10:05;;;;;;;41.45;16.35;;;-2.40;99.90;;;;;;5073751;28;20070;-77
2021/12/22 07:12:30;;;;;;;37.97;15.93;;;-2.40;99.90;;;;;;5078939;28;20033;-77
2021/12/22 07:14:56;;;;;;;39.42;16.58;;;-2.40;99.90;;;;;;5083196;28;20522;-77
2021/12/22 07:17:22;;;;;;;44.83;17.10;;;-2.40;99.90;;;;;;5085164;28;20070;-78
2021/12/22 07:19:47;;;;;;;42.00;16.20;;;-2.40;99.90;;;;;;5095932;28;20020;-77
2021/12/22 07:22:13;;;;;;;40.30;16.50;;;-2.40;99.90;;;;;;5083913;28;20017;-76
2021/12/22 07:24:38;;;;;;;41.88;16.73;;;-2.40;99.90;;;;;;5082518;28;20441;-78
2021/12/22 07:27:04;;;;;;;45.05;15.25;;;-2.40;99.90;;;;;;5088329;28;20052;-76
2021/12/22 07:29:30;;;;;;;39.50;15.93;;;-2.40;99.90;;;;;;5092569;28;20063;-78
2021/12/22 07:31:55;;;;;;;38.10;16.38;;;-2.40;99.90;;;;;;5087998;28;20050;-76
2021/12/22 07:34:27;;;;;;;34.50;15.85;;;-2.30;99.90;;;;;;5082632;28;20020;-76
2021/12/22 07:37:08;;;;;;;42.00;17.13;;;-2.40;99.90;;;;;;5087323;28;20043;-76
2021/12/22 07:39:36;;;;;;;44.35;15.77;;;-2.40;99.90;;;;;;5087669;28;20035;-76
2021/12/22 07:42:01;;;;;;;38.95;15.90;;;-2.40;99.90;;;;;;5086466;28;20049;-77
2021/12/22 07:44:27;;;;;;;30.10;14.98;;;-2.40;99.90;;;;;;5080990;28;20057;-77
2021/12/22 07:46:52;;;;;;;40.90;15.70;;;-2.40;99.90;;;;;;5090911;28;20064;-76
2021/12/22 07:49:18;;;;;;;34.15;16.60;;;-2.40;99.90;;;;;;5095027;28;20124;-77
2021/12/22 07:51:44;;;;;;;31.80;15.48;;;-2.40;99.90;;;;;;5100835;28;20030;-76
2021/12/22 07:54:09;;;;;;;37.63;15.32;;;-2.40;99.90;;;;;;5097717;28;20047;-78
2021/12/22 07:56:36;;;;;;;38.42;14.77;;;-2.40;99.90;;;;;;5098974;28;20127;-76
2021/12/22 07:59:05;;;;;;;45.92;16.10;;;-2.40;99.90;;;;;;5097754;28;20158;-76
2021/12/22 08:01:32;;;;;;;37.53;15.55;;;-2.40;99.90;;;;;;5088220;28;20028;-75
2021/12/22 08:04:03;;;;;;;36.10;16.42;;;-2.40;99.90;;;;;;5096419;28;20084;-79
2021/12/22 08:06:28;;;;;;;39.80;15.07;;;-2.30;99.90;;;;;;5088897;28;20039;-76
2021/12/22 08:08:54;;;;;;;42.20;14.93;;;-2.40;99.90;;;;;;5098901;28;20028;-77
2021/12/22 08:11:20;;;;;;;34.75;14.75;;;-2.30;99.90;;;;;;5100560;28;20024;-75
2021/12/22 08:13:45;;;;;;;39.20;15.73;;;-2.40;99.90;;;;;;5096529;28;20481;-80
2021/12/22 08:16:11;;;;;;;34.88;14.95;;;-2.40;99.90;;;;;;5081610;28;20043;-79
2021/12/22 08:18:36;;;;;;;38.30;16.55;;;-2.30;99.90;;;;;;5111844;28;20023;-78
2021/12/22 08:21:02;;;;;;;49.67;17.20;;;-2.30;99.90;;;;;;5123452;28;20028;-80
2021/12/22 08:23:28;;;;;;;42.22;16.73;;;-2.30;99.90;;;;;;5117873;28;20023;-79
2021/12/22 08:25:54;;;;;;;37.88;16.20;;;-2.30;99.90;;;;;;5118062;28;20023;-79
2021/12/22 08:28:20;;;;;;;37.83;16.50;;;-2.30;99.90;;;;;;5113893;28;20047;-77
2021/12/22 08:30:46;;;;;;;36.05;15.30;;;-2.30;99.90;;;;;;5079740;28;20468;-74
2021/12/22 08:33:24;;;;;;;31.35;15.52;;;-2.20;99.90;;;;;;5089157;28;20119;-76
2021/12/22 08:38:58;;;;;;;47.58;17.40;;;-2.20;99.90;;;;;;5077474;28;20028;-78
2021/12/22 08:41:28;;;;;;;35.60;16.15;;;-2.10;99.90;;;;;;5078420;28;20055;-77
2021/12/22 08:43:56;;;;;;;32.85;15.90;;;-2.10;99.90;;;;;;5089659;28;20032;-79
2021/12/22 08:46:23;;;;;;;37.15;15.38;;;-2.10;99.90;;;;;;5076241;28;20029;-79
2021/12/22 08:48:48;;;;;;;33.00;15.18;;;-2.00;99.90;;;;;;5074402;28;20051;-77
2021/12/22 08:51:14;;;;;;;36.45;15.13;;;-2.00;99.90;;;;;;5090316;28;20020;-76
2021/12/22 08:53:41;;;;;;;30.95;15.07;;;-2.00;99.90;;;;;;5090917;28;20048;-79
2021/12/22 08:56:07;;;;;;;41.53;15.48;;;-2.00;99.90;;;;;;5075038;28;20044;-77
2021/12/22 08:58:33;;;;;;;36.00;16.67;;;-1.80;99.90;;;;;;5076674;28;20024;-77
2021/12/22 09:01:00;;;;;;;42.53;15.80;;;-1.90;99.90;;;;;;5074422;28;20453;-79
2021/12/22 09:03:25;;;;;;;41.55;15.30;;;-1.80;99.90;;;;;;5075906;28;20021;-79
2021/12/22 09:05:51;;;;;;;31.20;14.10;;;-1.80;99.90;;;;;;5090651;28;20034;-74
2021/12/22 09:08:17;;;;;;;30.85;14.52;;;-1.70;99.90;;;;;;5093539;28;20047;-74
2021/12/22 09:10:43;;;;;;;28.15;13.18;;;-1.60;99.90;;;;;;5095890;28;20095;-77
2021/12/22 09:13:08;;;;;;;34.78;14.70;;;-1.60;99.90;;;;;;5087979;28;20024;-72
2021/12/22 09:15:35;;;;;;;29.77;13.55;;;-1.60;99.90;;;;;;5101046;28;20038;-75
2021/12/22 09:18:01;;;;;;;33.10;13.90;;;-1.50;99.90;;;;;;5099207;28;20058;-73
2021/12/22 09:20:28;;;;;;;33.90;14.40;;;-1.50;99.90;;;;;;5101273;28;20047;-73
2021/12/22 09:22:54;;;;;;;23.73;12.63;;;-1.40;99.90;;;;;;5098936;28;20028;-73
2021/12/22 09:25:20;;;;;;;28.73;14.32;;;-1.40;99.90;;;;;;5095499;28;20036;-73
2021/12/22 09:27:45;;;;;;;34.45;15.00;;;-1.30;99.90;;;;;;5088534;28;20111;-74
2021/12/22 09:30:12;;;;;;;25.23;13.15;;;-1.20;99.90;;;;;;5091582;28;20036;-75
2021/12/22 09:32:38;;;;;;;38.00;14.85;;;-1.20;99.90;;;;;;5084997;28;20032;-79
2021/12/22 09:35:06;;;;;;;31.00;13.27;;;-1.10;99.90;;;;;;5092284;28;20024;-83
2021/12/22 09:37:32;;;;;;;30.23;13.55;;;-1.00;99.90;;;;;;5097980;28;20060;-80
2021/12/22 09:39:57;;;;;;;32.58;15.00;;;-1.00;99.90;;;;;;5100725;28;20035;-82
2021/12/22 09:42:23;;;;;;;26.55;12.80;;;-1.00;99.90;;;;;;5090350;28;20036;-84
2021/12/22 09:44:50;;;;;;;25.05;13.27;;;-0.90;99.90;;;;;;5106760;28;20020;-82
2021/12/22 09:47:25;;;;;;;23.38;11.88;;;-0.90;99.90;;;;;;5102717;28;20111;-85
2021/12/22 09:50:09;;;;;;;25.13;13.88;;;-0.90;99.90;;;;;;5102466;28;20028;-86
2021/12/22 09:52:37;;;;;;;30.48;13.52;;;-0.90;99.90;;;;;;5122036;28;20020;-84
2021/12/22 09:55:08;;;;;;;27.90;13.68;;;-0.90;99.90;;;;;;5097380;28;20036;-84
2021/12/22 09:57:34;;;;;;;23.25;13.25;;;-0.90;99.90;;;;;;5090631;28;20116;-85
2021/12/22 10:00:03;;;;;;;31.70;14.55;;;-0.90;99.90;;;;;;5090277;28;20027;-86
2021/12/22 10:02:29;;;;;;;26.13;13.77;;;-0.80;99.90;;;;;;5102201;28;20028;-85
2021/12/22 10:05:00;;;;;;;26.65;13.75;;;-0.80;99.90;;;;;;5105093;28;20035;-79
2021/12/22 10:07:29;;;;;;;23.17;14.25;;;-0.80;99.90;;;;;;5105217;28;20059;-79
2021/12/22 10:10:03;;;;;;;31.02;13.95;;;-0.60;99.90;;;;;;5109550;28;20479;-81
2021/12/22 10:12:29;;;;;;;30.88;13.82;;;-0.50;99.90;;;;;;5115696;28;20040;-81
2021/12/22 10:14:57;;;;;;;22.33;13.90;;;-0.40;99.90;;;;;;5094193;28;20016;-80
2021/12/22 10:17:36;;;;;;;26.75;13.82;;;-0.30;99.90;;;;;;5104493;28;20047;-77
2021/12/22 10:20:08;;;;;;;22.00;12.40;;;-0.10;99.90;;;;;;5107136;28;20114;-81
2021/12/22 10:22:43;;;;;;;25.45;13.55;;;0.00;99.90;;;;;;5101753;28;20099;-81
2021/12/22 10:25:11;;;;;;;30.88;14.35;;;0.10;99.90;;;;;;5104301;28;20032;-79
2021/12/22 10:27:39;;;;;;;28.23;13.65;;;0.10;99.90;;;;;;5104512;28;20031;-80
2021/12/22 10:30:25;;;;;;;23.88;13.50;;;0.10;99.90;;;;;;5109260;28;20039;-80
2021/12/22 10:33:10;;;;;;;26.27;13.35;;;0.10;99.90;;;;;;5103786;28;20264;-81
2021/12/22 10:35:38;;;;;;;21.25;13.07;;;0.20;99.90;;;;;;5105090;28;20048;-80
2021/12/22 10:38:06;;;;;;;27.70;13.70;;;0.30;99.90;;;;;;5098984;28;20052;-79
2021/12/22 10:40:34;;;;;;;27.65;13.68;;;0.40;99.90;;;;;;5090469;28;20043;-78
2021/12/22 10:43:01;;;;;;;29.90;13.77;;;0.40;99.90;;;;;;5095034;28;20027;-77
2021/12/22 10:45:29;;;;;;;23.50;13.05;;;0.40;99.90;;;;;;5091227;28;20028;-77
2021/12/22 10:50:42;;;;;;;26.52;12.85;;;0.40;99.90;;;;;;5105127;28;20034;-77
2021/12/22 10:53:09;;;;;;;22.30;12.40;;;0.50;99.90;;;;;;5107437;28;20103;-78
2021/12/22 10:55:43;;;;;;;24.02;13.43;;;0.60;99.90;;;;;;5104733;28;20036;-77
2021/12/22 10:58:27;;;;;;;23.38;13.38;;;0.70;99.90;;;;;;5109139;28;20502;-78
2021/12/22 11:00:59;;;;;;;26.48;12.77;;;0.80;99.90;;;;;;5094618;28;20791;-76
2021/12/22 11:03:36;;;;;;;26.45;13.05;;;0.90;99.90;;;;;;5103616;28;20073;-77
2021/12/22 11:06:09;;;;;;;19.75;12.30;;;0.90;99.90;;;;;;5096731;28;20077;-78
2021/12/22 11:08:37;;;;;;;18.92;11.52;;;0.90;99.90;;;;;;5081468;28;20127;-83
2021/12/22 11:11:14;;;;;;;18.27;12.13;;;1.00;99.90;;;;;;5091997;28;20030;-76
2021/12/22 11:13:40;;;;;;;18.98;11.88;;;1.10;99.90;;;;;;5094888;28;20387;-74
2021/12/22 11:16:11;;;;;;;120.78;77.35;;;1.10;99.90;;;;;;5091834;28;20047;-76
2021/12/22 11:18:36;;;;;;;30.17;16.33;;;1.10;99.90;;;;;;5095960;28;20069;-76
2021/12/22 11:21:16;;;;;;;28.13;14.50;;;1.10;99.90;;;;;;5096075;28;20021;-77
2021/12/22 11:23:42;;;;;;;24.80;12.67;;;1.20;99.90;;;;;;5097664;28;20107;-76
2021/12/22 11:26:14;;;;;;;24.40;11.35;;;1.20;99.90;;;;;;5101927;28;20098;-79
2021/12/22 11:28:41;;;;;;;20.23;11.82;;;1.20;99.90;;;;;;5115717;28;20043;-79
2021/12/22 11:31:07;;;;;;;21.95;11.75;;;1.30;99.90;;;;;;5095208;28;20032;-78
2021/12/22 11:33:34;;;;;;;19.73;11.32;;;1.30;99.90;;;;;;5074013;28;20021;-82
2021/12/22 11:36:00;;;;;;;23.13;12.63;;;1.30;99.90;;;;;;5080437;28;20116;-83
2021/12/22 11:38:28;;;;;;;24.65;11.73;;;1.30;99.90;;;;;;5087760;28;20370;-84
2021/12/22 11:41:02;;;;;;;23.27;12.02;;;1.20;99.90;;;;;;5106210;28;20023;-82
2021/12/22 11:43:28;;;;;;;21.27;11.88;;;1.30;99.90;;;;;;5082564;27;20073;-80
2021/12/22 11:45:55;;;;;;;20.58;10.68;;;1.30;99.90;;;;;;5083045;28;20472;-83
2021/12/22 11:48:21;;;;;;;19.75;11.60;;;1.20;99.90;;;;;;5082363;28;20120;-82
2021/12/22 11:50:48;;;;;;;18.52;11.60;;;1.30;99.90;;;;;;5083295;28;20025;-82
2021/12/22 11:53:15;;;;;;;23.75;11.55;;;1.30;99.90;;;;;;5076756;28;20350;-84
2021/12/22 11:55:57;;;;;;;20.02;11.50;;;1.30;99.90;;;;;;5088923;28;20116;-83
2021/12/22 11:58:32;;;;;;;21.38;12.43;;;1.30;99.90;;;;;;5082540;28;20035;-84
2021/12/22 12:00:58;;;;;;;18.35;11.77;;;1.30;99.90;;;;;;5080221;28;20028;-80
2021/12/22 12:03:40;;;;;;;24.55;11.77;;;1.30;99.90;;;;;;5089486;28;20020;-81
2021/12/22 12:06:06;;;;;;;27.65;11.90;;;1.30;99.90;;;;;;5086412;28;20020;-80
2021/12/22 12:08:41;;;;;;;19.40;11.50;;;1.30;99.90;;;;;;5088652;28;20027;-82
2021/12/22 12:11:16;;;;;;;19.45;11.23;;;1.30;99.90;;;;;;5085731;28;20078;-80
2021/12/22 12:13:48;;;;;;;18.08;10.88;;;1.30;99.90;;;;;;5080357;28;20028;-82
2021/12/22 12:22:09;;;;;;;18.45;10.57;;;1.30;99.90;;;;;;5086602;28;20490;-81
2021/12/22 12:24:39;;;;;;;19.63;10.98;;;1.30;99.90;;;;;;5080542;28;20017;-81
2021/12/22 12:27:34;;;;;;;19.60;8.02;;;1.30;99.90;;;;;;5092227;28;20031;-81
2021/12/22 12:30:06;;;;;;;15.25;10.75;;;1.40;99.90;;;;;;5095227;28;20020;-83
2021/12/22 12:32:50;;;;;;;21.60;10.60;;;1.40;99.90;;;;;;5095379;28;20020;-81
2021/12/22 12:35:26;;;;;;;21.45;10.75;;;1.50;99.90;;;;;;5094839;28;20078;-83
2021/12/22 12:38:16;;;;;;;18.92;9.50;;;1.50;99.90;;;;;;5095850;28;20452;-82
2021/12/22 12:40:54;;;;;;;;;;;1.60;99.90;;;;;;5095949;28;20028;-83
2021/12/22 12:46:35;;;;;;;17.20;10.05;;;1.70;99.90;;;;;;5099122;28;20033;-82
2021/12/22 12:49:04;;;;;;;15.57;9.90;;;1.70;99.90;;;;;;5089177;28;20064;-82
2021/12/22 12:51:33;;;;;;;19.52;10.27;;;1.70;99.90;;;;;;5091735;28;20028;-82
2021/12/22 12:54:02;;;;;;;28.33;12.07;;;1.70;99.90;;;;;;5086535;28;20483;-80
2021/12/22 12:56:34;;;;;;;28.80;12.60;;;1.70;99.90;;;;;;5092570;28;20032;-80
2021/12/22 12:59:02;;;;;;;16.92;10.57;;;1.80;99.90;;;;;;5088123;28;20168;-81
2021/12/22 13:01:59;;;;;;;20.52;11.68;;;1.80;99.90;;;;;;5089546;28;20027;-81
2021/12/22 13:04:35;;;;;;;16.45;10.52;;;1.80;99.90;;;;;;5085447;28;20028;-80
2021/12/22 13:07:00;;;;;;;14.05;10.05;;;1.80;99.90;;;;;;5094320;28;20043;-81
2021/12/22 13:09:32;;;;;;;16.52;11.00;;;1.90;99.90;;;;;;5094020;28;20564;-80